sensor_id;sensor_type;location;lat;lon;timestamp;P1;P2;P0
65012;PMS5003;51715;39.432;-77.518;2023-07-09T00:01:17;15;15;
65012;PMS5003;51715;39.432;-77.518;2023-07-09T00:03:46;17;17;
65012;PMS5003;51715;39.432;-77.518;2023-07-09T00:06:14;18;18;
65012;PMS5003;51715;39.432;-77.518;2023-07-09T00:08:44;14;14;
65012;PMS5003;51715;39.432;-77.518;2023-07-09T00:11:14;16;16;
65012;PMS5003;51715;39.432;-77.518;2023-07-09T00:13:43;17;17;
65012;PMS5003;51715;39.432;-77.518;2023-07-09T00:16:12;22;22;
65012;PMS5003;51715;39.432;-77.518;2023-07-09T00:18:42;18;18;
65012;PMS5003;51715;39.432;-77.518;2023-07-09T00:21:11;21;19;
65012;PMS5003;51715;39.432;-77.518;2023-07-09T00:23:38;16;16;
65012;PMS5003;51715;39.432;-77.518;2023-07-09T00:26:08;20;18;
65012;PMS5003;51715;39.432;-77.518;2023-07-09T00:28:37;17;15;
65012;PMS5003;51715;39.432;-77.518;2023-07-09T00:31:05;17;16;
65012;PMS5003;51715;39.432;-77.518;2023-07-09T00:33:36;18;16;
65012;PMS5003;51715;39.432;-77.518;2023-07-09T00:36:05;17;17;
65012;PMS5003;51715;39.432;-77.518;2023-07-09T00:38:42;20;20;
65012;PMS5003;51715;39.432;-77.518;2023-07-09T00:41:12;19;19;
65012;PMS5003;51715;39.432;-77.518;2023-07-09T00:43:45;15;15;
65012;PMS5003;51715;39.432;-77.518;2023-07-09T00:46:16;15;15;
65012;PMS5003;51715;39.432;-77.518;2023-07-09T00:49:47;21;20;
65012;PMS5003;51715;39.432;-77.518;2023-07-09T00:52:24;21;21;
65012;PMS5003;51715;39.432;-77.518;2023-07-09T00:54:56;21;18;
65012;PMS5003;51715;39.432;-77.518;2023-07-09T00:57:27;17;17;
65012;PMS5003;51715;39.432;-77.518;2023-07-09T00:59:58;20;19;
65012;PMS5003;51715;39.432;-77.518;2023-07-09T01:02:30;21;21;
65012;PMS5003;51715;39.432;-77.518;2023-07-09T01:04:59;21;21;
65012;PMS5003;51715;39.432;-77.518;2023-07-09T01:07:30;23;23;
65012;PMS5003;51715;39.432;-77.518;2023-07-09T01:09:58;21;18;
65012;PMS5003;51715;39.432;-77.518;2023-07-09T01:12:27;26;24;
65012;PMS5003;51715;39.432;-77.518;2023-07-09T01:14:55;25;24;
65012;PMS5003;51715;39.432;-77.518;2023-07-09T01:17:26;26;22;
65012;PMS5003;51715;39.432;-77.518;2023-07-09T01:19:55;43;39;
65012;PMS5003;51715;39.432;-77.518;2023-07-09T01:22:24;47;45;
65012;PMS5003;51715;39.432;-77.518;2023-07-09T01:24:54;66;62;
65012;PMS5003;51715;39.432;-77.518;2023-07-09T01:27:26;68;63;
65012;PMS5003;51715;39.432;-77.518;2023-07-09T01:29:57;73;70;
65012;PMS5003;51715;39.432;-77.518;2023-07-09T01:32:26;68;65;
65012;PMS5003;51715;39.432;-77.518;2023-07-09T01:34:57;71;70;
65012;PMS5003;51715;39.432;-77.518;2023-07-09T01:37:26;57;56;
65012;PMS5003;51715;39.432;-77.518;2023-07-09T01:39:55;60;58;
65012;PMS5003;51715;39.432;-77.518;2023-07-09T01:42:23;60;53;
65012;PMS5003;51715;39.432;-77.518;2023-07-09T01:44:52;51;51;
65012;PMS5003;51715;39.432;-77.518;2023-07-09T01:47:22;55;52;
65012;PMS5003;51715;39.432;-77.518;2023-07-09T01:49:50;43;41;
65012;PMS5003;51715;39.432;-77.518;2023-07-09T01:52:18;41;39;
65012;PMS5003;51715;39.432;-77.518;2023-07-09T01:54:46;43;41;
65012;PMS5003;51715;39.432;-77.518;2023-07-09T01:57:16;35;31;
65012;PMS5003;51715;39.432;-77.518;2023-07-09T01:59:46;32;32;
65012;PMS5003;51715;39.432;-77.518;2023-07-09T02:02:14;33;31;
65012;PMS5003;51715;39.432;-77.518;2023-07-09T02:04:43;36;36;
65012;PMS5003;51715;39.432;-77.518;2023-07-09T02:07:11;27;26;
65012;PMS5003;51715;39.432;-77.518;2023-07-09T02:09:39;23;22;
65012;PMS5003;51715;39.432;-77.518;2023-07-09T02:12:08;23;21;
65012;PMS5003;51715;39.432;-77.518;2023-07-09T02:14:36;25;23;
65012;PMS5003;51715;39.432;-77.518;2023-07-09T02:17:05;19;19;
65012;PMS5003;51715;39.432;-77.518;2023-07-09T02:19:34;20;20;
65012;PMS5003;51715;39.432;-77.518;2023-07-09T02:22:03;22;21;
65012;PMS5003;51715;39.432;-77.518;2023-07-09T02:24:32;20;20;
65012;PMS5003;51715;39.432;-77.518;2023-07-09T02:27:02;25;25;
65012;PMS5003;51715;39.432;-77.518;2023-07-09T02:29:32;26;25;
65012;PMS5003;51715;39.432;-77.518;2023-07-09T02:32:00;21;21;
65012;PMS5003;51715;39.432;-77.518;2023-07-09T02:34:29;22;20;
65012;PMS5003;51715;39.432;-77.518;2023-07-09T02:36:59;22;22;
65012;PMS5003;51715;39.432;-77.518;2023-07-09T02:39:27;26;25;
65012;PMS5003;51715;39.432;-77.518;2023-07-09T02:41:55;21;19;
65012;PMS5003;51715;39.432;-77.518;2023-07-09T02:44:23;23;23;
65012;PMS5003;51715;39.432;-77.518;2023-07-09T02:46:51;18;16;
65012;PMS5003;51715;39.432;-77.518;2023-07-09T02:49:21;23;21;
65012;PMS5003;51715;39.432;-77.518;2023-07-09T02:51:50;18;18;
65012;PMS5003;51715;39.432;-77.518;2023-07-09T02:54:18;22;21;
65012;PMS5003;51715;39.432;-77.518;2023-07-09T02:56:46;17;15;
65012;PMS5003;51715;39.432;-77.518;2023-07-09T02:59:14;17;17;
65012;PMS5003;51715;39.432;-77.518;2023-07-09T03:01:43;19;17;
65012;PMS5003;51715;39.432;-77.518;2023-07-09T03:04:11;17;17;
65012;PMS5003;51715;39.432;-77.518;2023-07-09T03:06:39;17;15;
65012;PMS5003;51715;39.432;-77.518;2023-07-09T03:09:07;20;20;
65012;PMS5003;51715;39.432;-77.518;2023-07-09T03:11:36;18;18;
65012;PMS5003;51715;39.432;-77.518;2023-07-09T03:14:05;16;15;
65012;PMS5003;51715;39.432;-77.518;2023-07-09T03:16:33;12;12;
65012;PMS5003;51715;39.432;-77.518;2023-07-09T03:19:02;16;15;
65012;PMS5003;51715;39.432;-77.518;2023-07-09T03:21:30;12;12;
65012;PMS5003;51715;39.432;-77.518;2023-07-09T03:23:59;13;13;
65012;PMS5003;51715;39.432;-77.518;2023-07-09T03:26:28;11;11;
65012;PMS5003;51715;39.432;-77.518;2023-07-09T03:28:57;11;11;
65012;PMS5003;51715;39.432;-77.518;2023-07-09T03:31:24;13;12;
65012;PMS5003;51715;39.432;-77.518;2023-07-09T03:33:54;14;12;
65012;PMS5003;51715;39.432;-77.518;2023-07-09T03:36:21;13;11;
65012;PMS5003;51715;39.432;-77.518;2023-07-09T03:38:50;17;14;
65012;PMS5003;51715;39.432;-77.518;2023-07-09T03:41:18;10;10;
65012;PMS5003;51715;39.432;-77.518;2023-07-09T03:43:46;14;12;
65012;PMS5003;51715;39.432;-77.518;2023-07-09T03:46:14;14;13;
65012;PMS5003;51715;39.432;-77.518;2023-07-09T03:48:42;13;12;
65012;PMS5003;51715;39.432;-77.518;2023-07-09T03:51:09;10;10;
65012;PMS5003;51715;39.432;-77.518;2023-07-09T03:53:38;11;11;
65012;PMS5003;51715;39.432;-77.518;2023-07-09T03:56:06;11;11;
65012;PMS5003;51715;39.432;-77.518;2023-07-09T03:58:35;13;11;
65012;PMS5003;51715;39.432;-77.518;2023-07-09T04:04:04;15;12;
65012;PMS5003;51715;39.432;-77.518;2023-07-09T04:06:32;15;13;
65012;PMS5003;51715;39.432;-77.518;2023-07-09T04:09:01;14;12;
65012;PMS5003;51715;39.432;-77.518;2023-07-09T04:11:29;14;13;
65012;PMS5003;51715;39.432;-77.518;2023-07-09T04:13:58;9;8;
65012;PMS5003;51715;39.432;-77.518;2023-07-09T04:16:26;13;12;
65012;PMS5003;51715;39.432;-77.518;2023-07-09T04:18:54;12;12;
65012;PMS5003;51715;39.432;-77.518;2023-07-09T04:21:22;12;12;
65012;PMS5003;51715;39.432;-77.518;2023-07-09T04:23:50;12;11;
65012;PMS5003;51715;39.432;-77.518;2023-07-09T04:26:18;11;11;
65012;PMS5003;51715;39.432;-77.518;2023-07-09T04:28:46;16;16;
65012;PMS5003;51715;39.432;-77.518;2023-07-09T04:31:14;12;11;
65012;PMS5003;51715;39.432;-77.518;2023-07-09T04:33:42;15;14;
65012;PMS5003;51715;39.432;-77.518;2023-07-09T04:36:10;11;10;
65012;PMS5003;51715;39.432;-77.518;2023-07-09T04:38:38;12;12;
65012;PMS5003;51715;39.432;-77.518;2023-07-09T04:41:06;10;10;
65012;PMS5003;51715;39.432;-77.518;2023-07-09T04:43:34;12;11;
65012;PMS5003;51715;39.432;-77.518;2023-07-09T04:46:02;12;12;
65012;PMS5003;51715;39.432;-77.518;2023-07-09T04:48:31;13;13;
65012;PMS5003;51715;39.432;-77.518;2023-07-09T04:50:59;11;11;
65012;PMS5003;51715;39.432;-77.518;2023-07-09T04:53:28;12;12;
65012;PMS5003;51715;39.432;-77.518;2023-07-09T04:55:56;13;11;
65012;PMS5003;51715;39.432;-77.518;2023-07-09T04:58:24;16;15;
65012;PMS5003;51715;39.432;-77.518;2023-07-09T05:00:53;12;12;
65012;PMS5003;51715;39.432;-77.518;2023-07-09T05:03:24;9;9;
65012;PMS5003;51715;39.432;-77.518;2023-07-09T05:05:53;13;11;
65012;PMS5003;51715;39.432;-77.518;2023-07-09T05:08:22;12;10;
65012;PMS5003;51715;39.432;-77.518;2023-07-09T05:10:51;9;9;
65012;PMS5003;51715;39.432;-77.518;2023-07-09T05:13:19;12;12;
65012;PMS5003;51715;39.432;-77.518;2023-07-09T05:15:48;11;11;
65012;PMS5003;51715;39.432;-77.518;2023-07-09T05:18:17;14;13;
65012;PMS5003;51715;39.432;-77.518;2023-07-09T05:20:45;13;12;
65012;PMS5003;51715;39.432;-77.518;2023-07-09T05:23:15;11;11;
65012;PMS5003;51715;39.432;-77.518;2023-07-09T05:25:43;12;10;
65012;PMS5003;51715;39.432;-77.518;2023-07-09T05:28:11;10;10;
65012;PMS5003;51715;39.432;-77.518;2023-07-09T05:30:41;12;12;
65012;PMS5003;51715;39.432;-77.518;2023-07-09T05:33:09;15;15;
65012;PMS5003;51715;39.432;-77.518;2023-07-09T05:35:37;12;12;
65012;PMS5003;51715;39.432;-77.518;2023-07-09T05:38:05;15;13;
65012;PMS5003;51715;39.432;-77.518;2023-07-09T05:40:33;11;11;
65012;PMS5003;51715;39.432;-77.518;2023-07-09T05:43:01;12;12;
65012;PMS5003;51715;39.432;-77.518;2023-07-09T05:45:30;15;14;
65012;PMS5003;51715;39.432;-77.518;2023-07-09T05:47:58;14;13;
65012;PMS5003;51715;39.432;-77.518;2023-07-09T05:50:28;14;12;
65012;PMS5003;51715;39.432;-77.518;2023-07-09T05:52:56;10;10;
65012;PMS5003;51715;39.432;-77.518;2023-07-09T05:55:24;13;13;
65012;PMS5003;51715;39.432;-77.518;2023-07-09T05:57:52;15;12;
65012;PMS5003;51715;39.432;-77.518;2023-07-09T06:00:20;11;11;
65012;PMS5003;51715;39.432;-77.518;2023-07-09T06:02:49;14;13;
65012;PMS5003;51715;39.432;-77.518;2023-07-09T06:05:17;13;9;
65012;PMS5003;51715;39.432;-77.518;2023-07-09T06:07:45;10;10;
65012;PMS5003;51715;39.432;-77.518;2023-07-09T06:10:15;13;12;
65012;PMS5003;51715;39.432;-77.518;2023-07-09T06:12:44;13;12;
65012;PMS5003;51715;39.432;-77.518;2023-07-09T06:15:12;13;12;
65012;PMS5003;51715;39.432;-77.518;2023-07-09T06:17:40;11;10;
65012;PMS5003;51715;39.432;-77.518;2023-07-09T06:20:09;8;8;
65012;PMS5003;51715;39.432;-77.518;2023-07-09T06:22:38;14;11;
65012;PMS5003;51715;39.432;-77.518;2023-07-09T06:25:06;13;12;
65012;PMS5003;51715;39.432;-77.518;2023-07-09T06:27:34;15;13;
65012;PMS5003;51715;39.432;-77.518;2023-07-09T06:30:03;11;11;
65012;PMS5003;51715;39.432;-77.518;2023-07-09T06:32:32;15;15;
65012;PMS5003;51715;39.432;-77.518;2023-07-09T06:35:00;15;13;
65012;PMS5003;51715;39.432;-77.518;2023-07-09T06:37:29;11;9;
65012;PMS5003;51715;39.432;-77.518;2023-07-09T06:39:57;13;13;
65012;PMS5003;51715;39.432;-77.518;2023-07-09T06:42:25;17;13;
65012;PMS5003;51715;39.432;-77.518;2023-07-09T06:44:53;14;13;
65012;PMS5003;51715;39.432;-77.518;2023-07-09T06:47:21;12;12;
65012;PMS5003;51715;39.432;-77.518;2023-07-09T06:49:49;11;10;
65012;PMS5003;51715;39.432;-77.518;2023-07-09T06:52:17;14;14;
65012;PMS5003;51715;39.432;-77.518;2023-07-09T06:54:45;11;11;
65012;PMS5003;51715;39.432;-77.518;2023-07-09T06:57:13;10;10;
65012;PMS5003;51715;39.432;-77.518;2023-07-09T06:59:41;8;8;
65012;PMS5003;51715;39.432;-77.518;2023-07-09T07:02:09;14;14;
65012;PMS5003;51715;39.432;-77.518;2023-07-09T07:04:37;14;13;
65012;PMS5003;51715;39.432;-77.518;2023-07-09T07:07:04;13;13;
65012;PMS5003;51715;39.432;-77.518;2023-07-09T07:09:33;13;10;
65012;PMS5003;51715;39.432;-77.518;2023-07-09T07:12:01;14;11;
65012;PMS5003;51715;39.432;-77.518;2023-07-09T07:14:29;15;13;
65012;PMS5003;51715;39.432;-77.518;2023-07-09T07:16:57;12;12;
65012;PMS5003;51715;39.432;-77.518;2023-07-09T07:19:26;15;13;
65012;PMS5003;51715;39.432;-77.518;2023-07-09T07:21:54;14;14;
65012;PMS5003;51715;39.432;-77.518;2023-07-09T07:24:23;13;13;
65012;PMS5003;51715;39.432;-77.518;2023-07-09T07:26:51;12;12;
65012;PMS5003;51715;39.432;-77.518;2023-07-09T07:29:19;15;12;
65012;PMS5003;51715;39.432;-77.518;2023-07-09T07:31:47;11;10;
65012;PMS5003;51715;39.432;-77.518;2023-07-09T07:34:15;11;11;
65012;PMS5003;51715;39.432;-77.518;2023-07-09T07:36:43;10;10;
65012;PMS5003;51715;39.432;-77.518;2023-07-09T07:39:11;14;11;
65012;PMS5003;51715;39.432;-77.518;2023-07-09T07:41:39;13;13;
65012;PMS5003;51715;39.432;-77.518;2023-07-09T07:44:07;13;12;
65012;PMS5003;51715;39.432;-77.518;2023-07-09T07:46:35;13;13;
65012;PMS5003;51715;39.432;-77.518;2023-07-09T07:49:04;17;15;
65012;PMS5003;51715;39.432;-77.518;2023-07-09T07:51:32;11;10;
65012;PMS5003;51715;39.432;-77.518;2023-07-09T07:54:00;14;14;
65012;PMS5003;51715;39.432;-77.518;2023-07-09T07:56:28;13;13;
65012;PMS5003;51715;39.432;-77.518;2023-07-09T07:58:57;14;14;
65012;PMS5003;51715;39.432;-77.518;2023-07-09T08:01:25;13;12;
65012;PMS5003;51715;39.432;-77.518;2023-07-09T08:03:53;14;12;
65012;PMS5003;51715;39.432;-77.518;2023-07-09T08:06:21;10;10;
65012;PMS5003;51715;39.432;-77.518;2023-07-09T08:08:49;14;13;
65012;PMS5003;51715;39.432;-77.518;2023-07-09T08:11:17;14;13;
65012;PMS5003;51715;39.432;-77.518;2023-07-09T08:13:45;15;13;
65012;PMS5003;51715;39.432;-77.518;2023-07-09T08:16:14;12;12;
65012;PMS5003;51715;39.432;-77.518;2023-07-09T08:18:42;11;11;
65012;PMS5003;51715;39.432;-77.518;2023-07-09T08:21:11;11;11;
65012;PMS5003;51715;39.432;-77.518;2023-07-09T08:23:39;13;12;
65012;PMS5003;51715;39.432;-77.518;2023-07-09T08:26:06;12;12;
65012;PMS5003;51715;39.432;-77.518;2023-07-09T08:28:35;12;12;
65012;PMS5003;51715;39.432;-77.518;2023-07-09T08:31:04;17;14;
65012;PMS5003;51715;39.432;-77.518;2023-07-09T08:33:32;17;17;
65012;PMS5003;51715;39.432;-77.518;2023-07-09T08:36:00;13;13;
65012;PMS5003;51715;39.432;-77.518;2023-07-09T08:38:29;12;12;
65012;PMS5003;51715;39.432;-77.518;2023-07-09T08:40:58;12;11;
65012;PMS5003;51715;39.432;-77.518;2023-07-09T08:43:32;12;12;
65012;PMS5003;51715;39.432;-77.518;2023-07-09T08:46:05;12;12;
65012;PMS5003;51715;39.432;-77.518;2023-07-09T08:48:41;19;16;
65012;PMS5003;51715;39.432;-77.518;2023-07-09T08:51:13;15;15;
65012;PMS5003;51715;39.432;-77.518;2023-07-09T08:53:47;14;13;
65012;PMS5003;51715;39.432;-77.518;2023-07-09T08:56:20;16;16;
65012;PMS5003;51715;39.432;-77.518;2023-07-09T08:58:50;16;15;
65012;PMS5003;51715;39.432;-77.518;2023-07-09T09:01:22;14;14;
65012;PMS5003;51715;39.432;-77.518;2023-07-09T09:03:53;15;15;
65012;PMS5003;51715;39.432;-77.518;2023-07-09T09:06:26;15;10;
65012;PMS5003;51715;39.432;-77.518;2023-07-09T09:09:00;19;18;
65012;PMS5003;51715;39.432;-77.518;2023-07-09T09:11:41;13;11;
65012;PMS5003;51715;39.432;-77.518;2023-07-09T09:14:18;15;14;
65012;PMS5003;51715;39.432;-77.518;2023-07-09T09:16:53;14;12;
65012;PMS5003;51715;39.432;-77.518;2023-07-09T09:19:23;13;13;
65012;PMS5003;51715;39.432;-77.518;2023-07-09T09:21:56;15;14;
65012;PMS5003;51715;39.432;-77.518;2023-07-09T09:24:29;14;14;
65012;PMS5003;51715;39.432;-77.518;2023-07-09T09:27:02;15;15;
65012;PMS5003;51715;39.432;-77.518;2023-07-09T09:29:30;14;14;
65012;PMS5003;51715;39.432;-77.518;2023-07-09T09:31:59;17;17;
65012;PMS5003;51715;39.432;-77.518;2023-07-09T09:34:43;13;13;
65012;PMS5003;51715;39.432;-77.518;2023-07-09T09:37:11;14;14;
65012;PMS5003;51715;39.432;-77.518;2023-07-09T09:39:39;17;16;
65012;PMS5003;51715;39.432;-77.518;2023-07-09T09:42:10;19;19;
65012;PMS5003;51715;39.432;-77.518;2023-07-09T09:44:42;16;16;
65012;PMS5003;51715;39.432;-77.518;2023-07-09T09:47:12;13;13;
65012;PMS5003;51715;39.432;-77.518;2023-07-09T09:49:39;18;15;
65012;PMS5003;51715;39.432;-77.518;2023-07-09T09:52:10;14;14;
65012;PMS5003;51715;39.432;-77.518;2023-07-09T09:54:46;15;15;
65012;PMS5003;51715;39.432;-77.518;2023-07-09T09:57:19;17;17;
65012;PMS5003;51715;39.432;-77.518;2023-07-09T09:59:50;17;17;
65012;PMS5003;51715;39.432;-77.518;2023-07-09T10:02:21;14;13;
65012;PMS5003;51715;39.432;-77.518;2023-07-09T10:04:51;16;16;
65012;PMS5003;51715;39.432;-77.518;2023-07-09T10:07:21;15;14;
65012;PMS5003;51715;39.432;-77.518;2023-07-09T10:09:54;19;18;
65012;PMS5003;51715;39.432;-77.518;2023-07-09T10:12:28;13;13;
65012;PMS5003;51715;39.432;-77.518;2023-07-09T10:15:05;16;15;
65012;PMS5003;51715;39.432;-77.518;2023-07-09T10:17:43;18;18;
65012;PMS5003;51715;39.432;-77.518;2023-07-09T10:20:21;14;13;
65012;PMS5003;51715;39.432;-77.518;2023-07-09T10:22:57;12;12;
65012;PMS5003;51715;39.432;-77.518;2023-07-09T10:25:31;18;14;
65012;PMS5003;51715;39.432;-77.518;2023-07-09T10:28:15;13;12;
65012;PMS5003;51715;39.432;-77.518;2023-07-09T10:30:57;18;18;
65012;PMS5003;51715;39.432;-77.518;2023-07-09T10:33:33;16;15;
65012;PMS5003;51715;39.432;-77.518;2023-07-09T10:36:15;16;16;
65012;PMS5003;51715;39.432;-77.518;2023-07-09T10:38:55;17;17;
65012;PMS5003;51715;39.432;-77.518;2023-07-09T10:41:30;18;17;
65012;PMS5003;51715;39.432;-77.518;2023-07-09T10:44:04;19;19;
65012;PMS5003;51715;39.432;-77.518;2023-07-09T10:46:38;18;16;
65012;PMS5003;51715;39.432;-77.518;2023-07-09T10:49:12;20;20;
65012;PMS5003;51715;39.432;-77.518;2023-07-09T10:51:43;14;13;
65012;PMS5003;51715;39.432;-77.518;2023-07-09T10:54:20;15;13;
65012;PMS5003;51715;39.432;-77.518;2023-07-09T10:56:56;19;19;
65012;PMS5003;51715;39.432;-77.518;2023-07-09T10:59:31;19;19;
65012;PMS5003;51715;39.432;-77.518;2023-07-09T11:02:04;19;19;
65012;PMS5003;51715;39.432;-77.518;2023-07-09T11:04:44;19;17;
65012;PMS5003;51715;39.432;-77.518;2023-07-09T11:07:17;19;19;
65012;PMS5003;51715;39.432;-77.518;2023-07-09T11:09:50;17;17;
65012;PMS5003;51715;39.432;-77.518;2023-07-09T11:12:19;16;16;
65012;PMS5003;51715;39.432;-77.518;2023-07-09T11:14:55;18;17;
65012;PMS5003;51715;39.432;-77.518;2023-07-09T11:17:26;17;17;
65012;PMS5003;51715;39.432;-77.518;2023-07-09T11:19:56;18;18;
65012;PMS5003;51715;39.432;-77.518;2023-07-09T11:22:27;21;20;
65012;PMS5003;51715;39.432;-77.518;2023-07-09T11:25:08;15;15;
65012;PMS5003;51715;39.432;-77.518;2023-07-09T11:27:45;19;18;
65012;PMS5003;51715;39.432;-77.518;2023-07-09T11:30:19;21;20;
65012;PMS5003;51715;39.432;-77.518;2023-07-09T11:32:52;19;18;
65012;PMS5003;51715;39.432;-77.518;2023-07-09T11:35:23;20;19;
65012;PMS5003;51715;39.432;-77.518;2023-07-09T11:37:54;24;21;
65012;PMS5003;51715;39.432;-77.518;2023-07-09T11:40:23;21;20;
65012;PMS5003;51715;39.432;-77.518;2023-07-09T11:42:52;26;21;
65012;PMS5003;51715;39.432;-77.518;2023-07-09T11:45:24;20;18;
65012;PMS5003;51715;39.432;-77.518;2023-07-09T11:47:56;22;18;
65012;PMS5003;51715;39.432;-77.518;2023-07-09T11:50:29;19;17;
65012;PMS5003;51715;39.432;-77.518;2023-07-09T11:53:00;22;22;
65012;PMS5003;51715;39.432;-77.518;2023-07-09T11:55:33;20;18;
65012;PMS5003;51715;39.432;-77.518;2023-07-09T11:58:07;22;21;
65012;PMS5003;51715;39.432;-77.518;2023-07-09T12:00:38;28;26;
65012;PMS5003;51715;39.432;-77.518;2023-07-09T12:03:10;25;25;
65012;PMS5003;51715;39.432;-77.518;2023-07-09T12:05:42;24;24;
65012;PMS5003;51715;39.432;-77.518;2023-07-09T12:08:16;22;19;
65012;PMS5003;51715;39.432;-77.518;2023-07-09T12:10:45;28;25;
65012;PMS5003;51715;39.432;-77.518;2023-07-09T12:13:14;31;28;
65012;PMS5003;51715;39.432;-77.518;2023-07-09T12:15:42;22;22;
65012;PMS5003;51715;39.432;-77.518;2023-07-09T12:18:13;24;22;
65012;PMS5003;51715;39.432;-77.518;2023-07-09T12:20:45;22;21;
65012;PMS5003;51715;39.432;-77.518;2023-07-09T12:23:19;23;21;
65012;PMS5003;51715;39.432;-77.518;2023-07-09T12:25:50;21;19;
65012;PMS5003;51715;39.432;-77.518;2023-07-09T12:28:19;26;21;
65012;PMS5003;51715;39.432;-77.518;2023-07-09T12:30:49;28;26;
65012;PMS5003;51715;39.432;-77.518;2023-07-09T12:33:18;21;21;
65012;PMS5003;51715;39.432;-77.518;2023-07-09T12:35:49;20;19;
65012;PMS5003;51715;39.432;-77.518;2023-07-09T12:38:23;24;22;
65012;PMS5003;51715;39.432;-77.518;2023-07-09T12:40:54;26;22;
65012;PMS5003;51715;39.432;-77.518;2023-07-09T12:43:27;23;22;
65012;PMS5003;51715;39.432;-77.518;2023-07-09T12:45:58;24;24;
65012;PMS5003;51715;39.432;-77.518;2023-07-09T12:48:28;27;25;
65012;PMS5003;51715;39.432;-77.518;2023-07-09T12:50:57;26;25;
65012;PMS5003;51715;39.432;-77.518;2023-07-09T12:53:27;26;23;
65012;PMS5003;51715;39.432;-77.518;2023-07-09T12:55:55;32;28;
65012;PMS5003;51715;39.432;-77.518;2023-07-09T12:58:26;27;26;
65012;PMS5003;51715;39.432;-77.518;2023-07-09T13:00:57;23;22;
65012;PMS5003;51715;39.432;-77.518;2023-07-09T13:03:27;22;21;
65012;PMS5003;51715;39.432;-77.518;2023-07-09T13:05:57;25;25;
65012;PMS5003;51715;39.432;-77.518;2023-07-09T13:08:27;29;27;
65012;PMS5003;51715;39.432;-77.518;2023-07-09T13:10:57;24;23;
65012;PMS5003;51715;39.432;-77.518;2023-07-09T13:13:27;27;27;
65012;PMS5003;51715;39.432;-77.518;2023-07-09T13:15:56;23;21;
65012;PMS5003;51715;39.432;-77.518;2023-07-09T13:18:25;25;24;
65012;PMS5003;51715;39.432;-77.518;2023-07-09T13:20:54;22;20;
65012;PMS5003;51715;39.432;-77.518;2023-07-09T13:23:23;25;24;
65012;PMS5003;51715;39.432;-77.518;2023-07-09T13:25:53;27;24;
65012;PMS5003;51715;39.432;-77.518;2023-07-09T13:28:23;24;21;
65012;PMS5003;51715;39.432;-77.518;2023-07-09T13:30:52;22;22;
65012;PMS5003;51715;39.432;-77.518;2023-07-09T13:33:23;26;24;
65012;PMS5003;51715;39.432;-77.518;2023-07-09T13:35:52;28;26;
65012;PMS5003;51715;39.432;-77.518;2023-07-09T13:38:21;24;21;
65012;PMS5003;51715;39.432;-77.518;2023-07-09T13:40:51;24;23;
65012;PMS5003;51715;39.432;-77.518;2023-07-09T13:43:25;18;18;
65012;PMS5003;51715;39.432;-77.518;2023-07-09T13:45:55;22;22;
65012;PMS5003;51715;39.432;-77.518;2023-07-09T13:48:25;22;22;
65012;PMS5003;51715;39.432;-77.518;2023-07-09T13:50:54;27;25;
65012;PMS5003;51715;39.432;-77.518;2023-07-09T13:53:23;18;18;
65012;PMS5003;51715;39.432;-77.518;2023-07-09T13:55:54;25;25;
65012;PMS5003;51715;39.432;-77.518;2023-07-09T13:58:23;22;22;
65012;PMS5003;51715;39.432;-77.518;2023-07-09T14:00:55;28;26;
65012;PMS5003;51715;39.432;-77.518;2023-07-09T14:03:27;23;23;
65012;PMS5003;51715;39.432;-77.518;2023-07-09T14:05:58;21;21;
65012;PMS5003;51715;39.432;-77.518;2023-07-09T14:08:26;24;24;
65012;PMS5003;51715;39.432;-77.518;2023-07-09T14:10:54;20;18;
65012;PMS5003;51715;39.432;-77.518;2023-07-09T14:13:23;23;22;
65012;PMS5003;51715;39.432;-77.518;2023-07-09T14:15:51;19;17;
65012;PMS5003;51715;39.432;-77.518;2023-07-09T14:18:21;22;20;
65012;PMS5003;51715;39.432;-77.518;2023-07-09T14:20:50;23;22;
65012;PMS5003;51715;39.432;-77.518;2023-07-09T14:23:18;17;17;
65012;PMS5003;51715;39.432;-77.518;2023-07-09T14:25:48;23;21;
65012;PMS5003;51715;39.432;-77.518;2023-07-09T14:28:17;23;21;
65012;PMS5003;51715;39.432;-77.518;2023-07-09T14:30:48;18;18;
65012;PMS5003;51715;39.432;-77.518;2023-07-09T14:33:17;22;18;
65012;PMS5003;51715;39.432;-77.518;2023-07-09T14:35:48;22;22;
65012;PMS5003;51715;39.432;-77.518;2023-07-09T14:38:18;23;21;
65012;PMS5003;51715;39.432;-77.518;2023-07-09T14:40:50;19;19;
65012;PMS5003;51715;39.432;-77.518;2023-07-09T14:43:20;24;24;
65012;PMS5003;51715;39.432;-77.518;2023-07-09T14:45:48;23;21;
65012;PMS5003;51715;39.432;-77.518;2023-07-09T14:48:17;26;25;
65012;PMS5003;51715;39.432;-77.518;2023-07-09T14:50:47;22;21;
65012;PMS5003;51715;39.432;-77.518;2023-07-09T14:53:16;24;21;
65012;PMS5003;51715;39.432;-77.518;2023-07-09T14:55:49;22;20;
65012;PMS5003;51715;39.432;-77.518;2023-07-09T14:58:19;16;16;
65012;PMS5003;51715;39.432;-77.518;2023-07-09T15:00:48;24;21;
65012;PMS5003;51715;39.432;-77.518;2023-07-09T15:03:19;18;16;
65012;PMS5003;51715;39.432;-77.518;2023-07-09T15:05:48;21;19;
65012;PMS5003;51715;39.432;-77.518;2023-07-09T15:08:18;16;16;
65012;PMS5003;51715;39.432;-77.518;2023-07-09T15:10:49;21;21;
65012;PMS5003;51715;39.432;-77.518;2023-07-09T15:13:19;22;20;
65012;PMS5003;51715;39.432;-77.518;2023-07-09T15:15:52;17;16;
65012;PMS5003;51715;39.432;-77.518;2023-07-09T15:18:21;19;19;
65012;PMS5003;51715;39.432;-77.518;2023-07-09T15:20:49;19;19;
65012;PMS5003;51715;39.432;-77.518;2023-07-09T15:23:20;17;15;
65012;PMS5003;51715;39.432;-77.518;2023-07-09T15:25:49;20;18;
65012;PMS5003;51715;39.432;-77.518;2023-07-09T15:28:17;18;18;
65012;PMS5003;51715;39.432;-77.518;2023-07-09T15:30:46;19;18;
65012;PMS5003;51715;39.432;-77.518;2023-07-09T15:33:16;21;20;
65012;PMS5003;51715;39.432;-77.518;2023-07-09T15:35:46;24;21;
65012;PMS5003;51715;39.432;-77.518;2023-07-09T15:38:20;23;22;
65012;PMS5003;51715;39.432;-77.518;2023-07-09T15:40:55;19;17;
65012;PMS5003;51715;39.432;-77.518;2023-07-09T15:43:23;23;22;
65012;PMS5003;51715;39.432;-77.518;2023-07-09T15:45:54;21;21;
65012;PMS5003;51715;39.432;-77.518;2023-07-09T15:48:25;20;19;
65012;PMS5003;51715;39.432;-77.518;2023-07-09T15:50:55;17;17;
65012;PMS5003;51715;39.432;-77.518;2023-07-09T15:53:23;18;18;
65012;PMS5003;51715;39.432;-77.518;2023-07-09T15:55:53;21;19;
65012;PMS5003;51715;39.432;-77.518;2023-07-09T15:58:26;17;17;
65012;PMS5003;51715;39.432;-77.518;2023-07-09T16:00:56;20;20;
65012;PMS5003;51715;39.432;-77.518;2023-07-09T16:03:24;21;21;
65012;PMS5003;51715;39.432;-77.518;2023-07-09T16:05:52;17;17;
65012;PMS5003;51715;39.432;-77.518;2023-07-09T16:08:20;21;20;